Hc Nadja Maria — V2AV4 — position and weather

sailwx.info

Track history (hours):
 
Tides and Currents Weather Stations Pressure Air Temp Water Temp Dewpoint Dewpoint Depression Visibility Wind Speed Wind Dir Waves Ship Positions

Hc Nadja Maria

Last reported at 2014-Oct-29 11:29 UTC. Time now 2014-Oct-30 13:52 UTC.
Position N 49°51' W 003°14'.

Length 129 m; draft 7.7 m.

Type: Ship (hazmat cat A). MMSI: 304204000.

Date/timePositionNaut miles runAvg speedWind from/ knotsBaromVisibWave heightAir tempDewpointWater temp
2014-Oct-29 11:29N 49°51' W 003°14'12812.4
2014-Oct-29 01:07N 50°31' W 000°03'1610.0
2014-Oct-28 23:33N 50°35' E 000°20'10 9.6
2014-Oct-28 22:33N 50°39' E 000°34'1110.9
2014-Oct-28 21:33N 50°45' E 000°49'1812.3
2014-Oct-28 20:07N 50°56' E 001°11'712.6
2014-Oct-28 19:33N 51°00' E 001°19'1211.6
2014-Oct-28 18:33N 51°08' E 001°33'1010.0
2014-Oct-28 17:33N 51°14' E 001°45'10 9.6
2014-Oct-28 16:33N 51°23' E 001°53'9 9.2
2014-Oct-28 15:33N 51°30' E 002°01'10 9.9
2014-Oct-28 14:34N 51°38' E 002°11'1010.0
2014-Oct-28 13:32N 51°45' E 002°23'1412.6
2014-Oct-28 12:27N 51°56' E 002°37'1212.1
2014-Oct-28 11:28N 52°05' E 002°50'1412.6
2014-Oct-28 10:24N 52°15' E 003°04'1112.4
2014-Oct-28 09:33N 52°23' E 003°15'1211.6
2014-Oct-28 08:30N 52°33' E 003°27'1010.8
2014-Oct-28 07:33N 52°41' E 003°37'1010.4
2014-Oct-28 06:33N 52°49' E 003°48'1010.0
2014-Oct-28 05:33N 52°57' E 003°58'1010.2
2014-Oct-28 04:33N 53°04' E 004°10'1211.1
2014-Oct-28 03:30N 53°12' E 004°24'1111.8
2014-Oct-28 02:33N 53°22' E 004°33'1211.4
2014-Oct-28 01:33N 53°30' E 004°47'1212.1
2014-Oct-28 00:33N 53°34' E 005°06'1111.4
2014-Oct-27 23:33N 53°38' E 005°24'1110.6
2014-Oct-27 22:33N 53°42' E 005°41'1010.2
2014-Oct-27 21:33N 53°45' E 005°57'1010.1
2014-Oct-27 20:33N 53°49' E 006°13'1510.8
2014-Oct-27 19:07N 53°52' E 006°38'3212.4
2014-Oct-27 16:33N 53°60' E 007°31'1212.2
2014-Oct-27 15:33N 54°01' E 007°51'1211.9
2014-Oct-27 14:33N 54°01' E 008°12'1111.4
2014-Oct-27 13:33N 53°59' E 008°31'10 9.8
2014-Oct-27 12:33N 53°52' E 008°43'9 8.9
2014-Oct-27 11:33N 53°51' E 008°58'7 6.7
2014-Oct-27 10:33N 53°54' E 009°09'2 1.6
2014-Oct-27 09:33N 53°55' E 009°11'24 7.8
2014-Oct-27 06:30N 54°13' E 009°36'8 7.1
2014-Oct-27 05:26N 54°20' E 009°43'6 6.0
2014-Oct-27 04:25N 54°21' E 009°53'6 7.1
2014-Oct-27 03:34N 54°22' E 010°04'3 2.8
2014-Oct-27 02:33N 54°22' E 010°09'4 3.6
2014-Oct-27 01:33N 54°25' E 010°12'9 9.2
2014-Oct-27 00:33N 54°31' E 010°23'9 8.8
2014-Oct-26 23:33N 54°35' E 010°38'10 8.5
2014-Oct-26 22:24N 54°35' E 010°54'23 8.1
2014-Oct-26 19:30N 54°30' E 011°33'1212.2
2014-Oct-26 18:33N 54°27' E 011°53'5 5.1
2014-Oct-26 17:33N 54°27' E 012°02'8 7.7
2014-Oct-26 16:33N 54°32' E 012°12'9 8.7
2014-Oct-26 15:32N 54°39' E 012°21'53 8.6
2014-Oct-26 09:20N 55°01' E 013°45'7 8.9
2014-Oct-26 08:33N 55°03' E 013°56'9 8.7
2014-Oct-26 07:33N 55°08' E 014°08'9 8.7
2014-Oct-26 06:33N 55°15' E 014°18'8 8.0
2014-Oct-26 05:33N 55°22' E 014°26'1010.4
2014-Oct-26 04:33N 55°29' E 014°40'1010.4
2014-Oct-26 03:33N 55°34' E 014°55'1110.6
2014-Oct-26 02:33N 55°39' E 015°12'1110.4
2014-Oct-26 01:33N 55°44' E 015°28'1010.4
2014-Oct-26 00:33N 55°50' E 015°44'1010.2
2014-Oct-25 23:33N 55°55' E 015°60'1110.5
2014-Oct-25 22:33N 55°60' E 016°16'4210.3
2014-Oct-25 18:28N 56°24' E 017°19'1310.4
2014-Oct-25 17:13N 56°32' E 017°37'810.3
2014-Oct-25 16:25N 56°37' E 017°49'12 9.7
2014-Oct-25 15:13N 56°44' E 018°06'7 9.0
2014-Oct-25 14:28N 56°48' E 018°16'9 9.2
2014-Oct-25 13:31N 56°53' E 018°28'216 8.3
2014-Oct-24 11:25N 59°35' E 022°59'1311.1
2014-Oct-24 10:16N 59°39' E 023°24'811.5
2014-Oct-24 09:33N 59°41' E 023°39'1211.7
2014-Oct-24 08:31N 59°44' E 024°02'4912.1
2014-Oct-24 04:26N 59°54' E 025°39'1112.0
2014-Oct-24 03:30N 59°57' E 026°01'1111.9
2014-Oct-24 02:33N 59°60' E 026°22'1211.8
2014-Oct-24 01:33N 60°01' E 026°46'10311.1
2014-Oct-23 16:13N 59°53' E 030°12'2 0.2
2014-Oct-23 07:13N 59°54' E 030°14'0 0.0
2014-Oct-23 06:33N 59°54' E 030°14'0 0.0
2014-Oct-23 05:31N 59°54' E 030°14'0 0.0
2014-Oct-23 04:31N 59°54' E 030°14'0 0.0
2014-Oct-22 23:34N 59°54' E 030°14'0 0.0
2014-Oct-22 22:33N 59°54' E 030°14'0 0.0
2014-Oct-22 21:31N 59°54' E 030°14'0 0.0
2014-Oct-22 20:09N 59°54' E 030°14'0 0.0
2014-Oct-22 16:34N 59°54' E 030°14'0 0.0
2014-Oct-22 15:34N 59°54' E 030°14'0 0.0
2014-Oct-22 14:34N 59°54' E 030°14'0 0.0
2014-Oct-22 13:34N 59°54' E 030°14'0 0.0
2014-Oct-22 12:34N 59°54' E 030°14'0 0.0
2014-Oct-22 11:28N 59°54' E 030°14'0 0.0
2014-Oct-22 10:34N 59°54' E 030°14'0 0.0
2014-Oct-22 09:34N 59°54' E 030°14'0 0.0
2014-Oct-22 08:34N 59°54' E 030°14'0 0.0
2014-Oct-22 07:34N 59°54' E 030°14'0 0.0
2014-Oct-22 06:34N 59°54' E 030°14'0 0.0
2014-Oct-22 05:34N 59°54' E 030°14'0 0.0
2014-Oct-22 04:34N 59°54' E 030°14'0 0.0
2014-Oct-22 03:34N 59°54' E 030°14'0 0.0
2014-Oct-22 02:34N 59°54' E 030°14'0 0.0
2014-Oct-22 01:34N 59°54' E 030°14'0 0.0
2014-Oct-22 00:34N 59°54' E 030°14'0 0.0
2014-Oct-21 23:34N 59°54' E 030°14'0 0.0
2014-Oct-21 20:33N 59°54' E 030°14'0 0.0
2014-Oct-21 19:34N 59°54' E 030°14'0 0.0
2014-Oct-21 18:30N 59°54' E 030°14'0 0.0
2014-Oct-21 17:34N 59°54' E 030°14'0 0.0
2014-Oct-21 16:34N 59°54' E 030°14'0 0.0
2014-Oct-21 15:31N 59°54' E 030°14'0 0.0
2014-Oct-21 14:31N 59°54' E 030°14'0 0.0
2014-Oct-21 13:34N 59°54' E 030°14'0 0.0
2014-Oct-21 12:33N 59°54' E 030°14'0 0.0
2014-Oct-21 11:34N 59°54' E 030°14'0 0.0
2014-Oct-21 10:31N 59°54' E 030°14'0 0.0
2014-Oct-21 09:33N 59°54' E 030°14'0 0.0
2014-Oct-21 08:33N 59°54' E 030°14'0 0.0
2014-Oct-21 07:34N 59°54' E 030°14'0 0.0
2014-Oct-21 06:34N 59°54' E 030°14'0 0.0
2014-Oct-21 05:34N 59°54' E 030°14'0 0.0
2014-Oct-21 04:33N 59°54' E 030°14'0 0.0
2014-Oct-21 03:34N 59°54' E 030°14'0 0.0
2014-Oct-21 02:34N 59°54' E 030°14'0 0.0
2014-Oct-21 01:33N 59°54' E 030°14'0 0.0
2014-Oct-21 00:34N 59°54' E 030°14'0 0.0
2014-Oct-20 23:34N 59°54' E 030°14'0 0.0
2014-Oct-20 22:34N 59°54' E 030°14'0 0.0
2014-Oct-20 21:34N 59°54' E 030°14'0 0.0
2014-Oct-20 20:33N 59°54' E 030°14'0 0.0
2014-Oct-20 19:34N 59°54' E 030°14'0 0.0
2014-Oct-20 18:34N 59°54' E 030°14'0 0.0
2014-Oct-20 17:34N 59°54' E 030°14'0 0.0
2014-Oct-20 16:34N 59°54' E 030°14'0 0.0
2014-Oct-20 15:34N 59°54' E 030°14'0 0.0
2014-Oct-20 14:33N 59°54' E 030°14'0 0.0
2014-Oct-20 13:34N 59°54' E 030°14'0 0.0
2014-Oct-20 12:33N 59°54' E 030°14'0 0.0
2014-Oct-20 11:31N 59°54' E 030°14'0 0.0
2014-Oct-20 10:34N 59°54' E 030°14'0 0.0
2014-Oct-20 09:34N 59°54' E 030°14'0 0.0
2014-Oct-20 08:34N 59°54' E 030°14'0 0.0
2014-Oct-20 07:33N 59°54' E 030°14'0 0.0
2014-Oct-20 06:34N 59°54' E 030°14'0 0.0
2014-Oct-20 05:34N 59°54' E 030°14'0 0.0
2014-Oct-20 03:28N 59°54' E 030°14'0 0.0
2014-Oct-20 02:28N 59°54' E 030°14'0 0.0
2014-Oct-20 01:34N 59°54' E 030°14'0 0.0
2014-Oct-20 00:10N 59°54' E 030°14'0 0.0
2014-Oct-19 23:28N 59°54' E 030°14'0 0.0
2014-Oct-19 15:22N 59°54' E 030°14'0 0.0
2014-Oct-19 12:16N 59°54' E 030°14'  
Track history (hours):
 
Tides and Currents Weather Stations Pressure Air Temp Water Temp Dewpoint Dewpoint Depression Visibility Wind Speed Wind Dir Waves Ship Positions

Hc Nadja Maria

Last reported at 2014-Oct-29 11:29 UTC. Time now 2014-Oct-30 13:52 UTC.
Position N 49°51' W 003°14'.

Length 129 m; draft 7.7 m.

Type: Ship (hazmat cat A). MMSI: 304204000.

Date/timePositionNaut miles runAvg speedWind from/ knotsBaromVisibWave heightAir tempDewpointWater temp
2014-Oct-29 11:29N 49°51' W 003°14'12812.4
2014-Oct-29 01:07N 50°31' W 000°03'1610.0
2014-Oct-28 23:33N 50°35' E 000°20'10 9.6
2014-Oct-28 22:33N 50°39' E 000°34'1110.9
2014-Oct-28 21:33N 50°45' E 000°49'1812.3
2014-Oct-28 20:07N 50°56' E 001°11'712.6
2014-Oct-28 19:33N 51°00' E 001°19'1211.6
2014-Oct-28 18:33N 51°08' E 001°33'1010.0
2014-Oct-28 17:33N 51°14' E 001°45'10 9.6
2014-Oct-28 16:33N 51°23' E 001°53'9 9.2
2014-Oct-28 15:33N 51°30' E 002°01'10 9.9
2014-Oct-28 14:34N 51°38' E 002°11'1010.0
2014-Oct-28 13:32N 51°45' E 002°23'1412.6
2014-Oct-28 12:27N 51°56' E 002°37'1212.1
2014-Oct-28 11:28N 52°05' E 002°50'1412.6
2014-Oct-28 10:24N 52°15' E 003°04'1112.4
2014-Oct-28 09:33N 52°23' E 003°15'1211.6
2014-Oct-28 08:30N 52°33' E 003°27'1010.8
2014-Oct-28 07:33N 52°41' E 003°37'1010.4
2014-Oct-28 06:33N 52°49' E 003°48'1010.0
2014-Oct-28 05:33N 52°57' E 003°58'1010.2
2014-Oct-28 04:33N 53°04' E 004°10'1211.1
2014-Oct-28 03:30N 53°12' E 004°24'1111.8
2014-Oct-28 02:33N 53°22' E 004°33'1211.4
2014-Oct-28 01:33N 53°30' E 004°47'1212.1
2014-Oct-28 00:33N 53°34' E 005°06'1111.4
2014-Oct-27 23:33N 53°38' E 005°24'1110.6
2014-Oct-27 22:33N 53°42' E 005°41'1010.2
2014-Oct-27 21:33N 53°45' E 005°57'1010.1
2014-Oct-27 20:33N 53°49' E 006°13'1510.8
2014-Oct-27 19:07N 53°52' E 006°38'3212.4
2014-Oct-27 16:33N 53°60' E 007°31'1212.2
2014-Oct-27 15:33N 54°01' E 007°51'1211.9
2014-Oct-27 14:33N 54°01' E 008°12'1111.4
2014-Oct-27 13:33N 53°59' E 008°31'10 9.8
2014-Oct-27 12:33N 53°52' E 008°43'9 8.9
2014-Oct-27 11:33N 53°51' E 008°58'7 6.7
2014-Oct-27 10:33N 53°54' E 009°09'2 1.6
2014-Oct-27 09:33N 53°55' E 009°11'24 7.8
2014-Oct-27 06:30N 54°13' E 009°36'8 7.1
2014-Oct-27 05:26N 54°20' E 009°43'6 6.0
2014-Oct-27 04:25N 54°21' E 009°53'6 7.1
2014-Oct-27 03:34N 54°22' E 010°04'3 2.8
2014-Oct-27 02:33N 54°22' E 010°09'4 3.6
2014-Oct-27 01:33N 54°25' E 010°12'9 9.2
2014-Oct-27 00:33N 54°31' E 010°23'9 8.8
2014-Oct-26 23:33N 54°35' E 010°38'10 8.5
2014-Oct-26 22:24N 54°35' E 010°54'23 8.1
2014-Oct-26 19:30N 54°30' E 011°33'1212.2
2014-Oct-26 18:33N 54°27' E 011°53'5 5.1
2014-Oct-26 17:33N 54°27' E 012°02'8 7.7
2014-Oct-26 16:33N 54°32' E 012°12'9 8.7
2014-Oct-26 15:32N 54°39' E 012°21'53 8.6
2014-Oct-26 09:20N 55°01' E 013°45'7 8.9
2014-Oct-26 08:33N 55°03' E 013°56'9 8.7
2014-Oct-26 07:33N 55°08' E 014°08'9 8.7
2014-Oct-26 06:33N 55°15' E 014°18'8 8.0
2014-Oct-26 05:33N 55°22' E 014°26'1010.4
2014-Oct-26 04:33N 55°29' E 014°40'1010.4
2014-Oct-26 03:33N 55°34' E 014°55'1110.6
2014-Oct-26 02:33N 55°39' E 015°12'1110.4
2014-Oct-26 01:33N 55°44' E 015°28'1010.4
2014-Oct-26 00:33N 55°50' E 015°44'1010.2
2014-Oct-25 23:33N 55°55' E 015°60'1110.5
2014-Oct-25 22:33N 55°60' E 016°16'4210.3
2014-Oct-25 18:28N 56°24' E 017°19'1310.4
2014-Oct-25 17:13N 56°32' E 017°37'810.3
2014-Oct-25 16:25N 56°37' E 017°49'12 9.7
2014-Oct-25 15:13N 56°44' E 018°06'7 9.0
2014-Oct-25 14:28N 56°48' E 018°16'9 9.2
2014-Oct-25 13:31N 56°53' E 018°28'216 8.3
2014-Oct-24 11:25N 59°35' E 022°59'1311.1
2014-Oct-24 10:16N 59°39' E 023°24'811.5
2014-Oct-24 09:33N 59°41' E 023°39'1211.7
2014-Oct-24 08:31N 59°44' E 024°02'4912.1
2014-Oct-24 04:26N 59°54' E 025°39'1112.0
2014-Oct-24 03:30N 59°57' E 026°01'1111.9
2014-Oct-24 02:33N 59°60' E 026°22'1211.8
2014-Oct-24 01:33N 60°01' E 026°46'10311.1
2014-Oct-23 16:13N 59°53' E 030°12'2 0.2
2014-Oct-23 07:13N 59°54' E 030°14'0 0.0
2014-Oct-23 06:33N 59°54' E 030°14'0 0.0
2014-Oct-23 05:31N 59°54' E 030°14'0 0.0
2014-Oct-23 04:31N 59°54' E 030°14'0 0.0
2014-Oct-22 23:34N 59°54' E 030°14'0 0.0
2014-Oct-22 22:33N 59°54' E 030°14'0 0.0
2014-Oct-22 21:31N 59°54' E 030°14'0 0.0
2014-Oct-22 20:09N 59°54' E 030°14'0 0.0
2014-Oct-22 16:34N 59°54' E 030°14'0 0.0
2014-Oct-22 15:34N 59°54' E 030°14'0 0.0
2014-Oct-22 14:34N 59°54' E 030°14'0 0.0
2014-Oct-22 13:34N 59°54' E 030°14'0 0.0
2014-Oct-22 12:34N 59°54' E 030°14'0 0.0
2014-Oct-22 11:28N 59°54' E 030°14'0 0.0
2014-Oct-22 10:34N 59°54' E 030°14'0 0.0
2014-Oct-22 09:34N 59°54' E 030°14'0 0.0
2014-Oct-22 08:34N 59°54' E 030°14'0 0.0
2014-Oct-22 07:34N 59°54' E 030°14'0 0.0
2014-Oct-22 06:34N 59°54' E 030°14'0 0.0
2014-Oct-22 05:34N 59°54' E 030°14'0 0.0
2014-Oct-22 04:34N 59°54' E 030°14'0 0.0
2014-Oct-22 03:34N 59°54' E 030°14'0 0.0
2014-Oct-22 02:34N 59°54' E 030°14'0 0.0
2014-Oct-22 01:34N 59°54' E 030°14'0 0.0
2014-Oct-22 00:34N 59°54' E 030°14'0 0.0
2014-Oct-21 23:34N 59°54' E 030°14'0 0.0
2014-Oct-21 20:33N 59°54' E 030°14'0 0.0
2014-Oct-21 19:34N 59°54' E 030°14'0 0.0
2014-Oct-21 18:30N 59°54' E 030°14'0 0.0
2014-Oct-21 17:34N 59°54' E 030°14'0 0.0
2014-Oct-21 16:34N 59°54' E 030°14'0 0.0
2014-Oct-21 15:31N 59°54' E 030°14'0 0.0
2014-Oct-21 14:31N 59°54' E 030°14'0 0.0
2014-Oct-21 13:34N 59°54' E 030°14'0 0.0
2014-Oct-21 12:33N 59°54' E 030°14'0 0.0
2014-Oct-21 11:34N 59°54' E 030°14'0 0.0
2014-Oct-21 10:31N 59°54' E 030°14'0 0.0
2014-Oct-21 09:33N 59°54' E 030°14'0 0.0
2014-Oct-21 08:33N 59°54' E 030°14'0 0.0
2014-Oct-21 07:34N 59°54' E 030°14'0 0.0
2014-Oct-21 06:34N 59°54' E 030°14'0 0.0
2014-Oct-21 05:34N 59°54' E 030°14'0 0.0
2014-Oct-21 04:33N 59°54' E 030°14'0 0.0
2014-Oct-21 03:34N 59°54' E 030°14'0 0.0
2014-Oct-21 02:34N 59°54' E 030°14'0 0.0
2014-Oct-21 01:33N 59°54' E 030°14'0 0.0
2014-Oct-21 00:34N 59°54' E 030°14'0 0.0
2014-Oct-20 23:34N 59°54' E 030°14'0 0.0
2014-Oct-20 22:34N 59°54' E 030°14'0 0.0
2014-Oct-20 21:34N 59°54' E 030°14'0 0.0
2014-Oct-20 20:33N 59°54' E 030°14'0 0.0
2014-Oct-20 19:34N 59°54' E 030°14'0 0.0
2014-Oct-20 18:34N 59°54' E 030°14'0 0.0
2014-Oct-20 17:34N 59°54' E 030°14'0 0.0
2014-Oct-20 16:34N 59°54' E 030°14'0 0.0
2014-Oct-20 15:34N 59°54' E 030°14'0 0.0
2014-Oct-20 14:33N 59°54' E 030°14'0 0.0
2014-Oct-20 13:34N 59°54' E 030°14'0 0.0
2014-Oct-20 12:33N 59°54' E 030°14'0 0.0
2014-Oct-20 11:31N 59°54' E 030°14'0 0.0
2014-Oct-20 10:34N 59°54' E 030°14'0 0.0
2014-Oct-20 09:34N 59°54' E 030°14'0 0.0
2014-Oct-20 08:34N 59°54' E 030°14'0 0.0
2014-Oct-20 07:33N 59°54' E 030°14'0 0.0
2014-Oct-20 06:34N 59°54' E 030°14'0 0.0
2014-Oct-20 05:34N 59°54' E 030°14'0 0.0
2014-Oct-20 03:28N 59°54' E 030°14'0 0.0
2014-Oct-20 02:28N 59°54' E 030°14'0 0.0
2014-Oct-20 01:34N 59°54' E 030°14'0 0.0
2014-Oct-20 00:10N 59°54' E 030°14'0 0.0
2014-Oct-19 23:28N 59°54' E 030°14'0 0.0
2014-Oct-19 15:22N 59°54' E 030°14'0 0.0
2014-Oct-19 12:16N 59°54' E 030°14'  

Dump ship's entire track history